Weather at Lipetsk Airport

Public forecast

Using degrees Celsius for public forecast. Weather courtesy of forecast.io.

Closest aviation weather report (METAR) to Lipetsk Airport

Closest report is Voronezh International Airport, 54.5 nm (101.0 km) SSW. Retrieved 2021/04/20 13:30 UTC (16 minutes ago):

UUOO 201330Z 07005MPS 7000 -SHRA BKN011 BKN020CB 05/04 Q1010 R12/290155 NOSIG RMK QFE743

Closest aviation forecast (TAF) to Lipetsk Airport

Forecast is more than 12 hours old.

Closest forecast is Voronezh International Airport, 54.5 nm (101.0 km) SSW. Retrieved 2015/08/10 18:12 UTC (6 years ago):

TAF TAF UUOO 101700Z 1018/1106 33003MPS CAVOK